sensor_id;sensor_type;location;lat;lon;timestamp;P1;durP1;ratioP1;P2;durP2;ratioP2
3423;SDS011;72707;50.120;8.500;2023-11-19T00:01:09;9.13;;;5.57;;
3423;SDS011;72707;50.120;8.500;2023-11-19T00:03:35;9.83;;;6.30;;
3423;SDS011;72707;50.120;8.500;2023-11-19T00:06:01;6.30;;;5.60;;
3423;SDS011;72707;50.120;8.500;2023-11-19T00:11:03;11.77;;;7.00;;
3423;SDS011;72707;50.120;8.500;2023-11-19T00:13:29;12.30;;;7.67;;
3423;SDS011;72707;50.120;8.500;2023-11-19T00:15:55;9.80;;;6.93;;
3423;SDS011;72707;50.120;8.500;2023-11-19T00:20:53;7.83;;;5.53;;
3423;SDS011;72707;50.120;8.500;2023-11-19T00:23:19;12.67;;;7.30;;
3423;SDS011;72707;50.120;8.500;2023-11-19T00:25:44;11.93;;;7.57;;
3423;SDS011;72707;50.120;8.500;2023-11-19T00:28:10;11.83;;;7.43;;
3423;SDS011;72707;50.120;8.500;2023-11-19T00:30:36;8.37;;;6.67;;
3423;SDS011;72707;50.120;8.500;2023-11-19T00:33:02;9.33;;;7.10;;
3423;SDS011;72707;50.120;8.500;2023-11-19T00:35:28;8.13;;;6.23;;
3423;SDS011;72707;50.120;8.500;2023-11-19T00:37:56;10.77;;;7.93;;
3423;SDS011;72707;50.120;8.500;2023-11-19T00:40:22;14.07;;;7.50;;
3423;SDS011;72707;50.120;8.500;2023-11-19T00:42:48;52.47;;;13.67;;
3423;SDS011;72707;50.120;8.500;2023-11-19T00:45:14;10.57;;;7.43;;
3423;SDS011;72707;50.120;8.500;2023-11-19T00:47:40;10.87;;;7.77;;
3423;SDS011;72707;50.120;8.500;2023-11-19T00:52:39;13.50;;;8.00;;
3423;SDS011;72707;50.120;8.500;2023-11-19T00:55:05;14.73;;;8.07;;
3423;SDS011;72707;50.120;8.500;2023-11-19T00:57:31;13.47;;;7.63;;
3423;SDS011;72707;50.120;8.500;2023-11-19T01:02:35;9.40;;;7.53;;
3423;SDS011;72707;50.120;8.500;2023-11-19T01:05:00;11.43;;;6.87;;
3423;SDS011;72707;50.120;8.500;2023-11-19T01:07:26;12.00;;;7.30;;
3423;SDS011;72707;50.120;8.500;2023-11-19T01:27:55;11.43;;;7.33;;
3423;SDS011;72707;50.120;8.500;2023-11-19T01:30:23;12.67;;;7.80;;
3423;SDS011;72707;50.120;8.500;2023-11-19T01:32:49;12.07;;;8.37;;
3423;SDS011;72707;50.120;8.500;2023-11-19T01:35:15;11.63;;;7.50;;
3423;SDS011;72707;50.120;8.500;2023-11-19T01:37:41;12.03;;;8.37;;
3423;SDS011;72707;50.120;8.500;2023-11-19T01:40:07;11.33;;;7.87;;
3423;SDS011;72707;50.120;8.500;2023-11-19T01:42:39;15.33;;;7.93;;
3423;SDS011;72707;50.120;8.500;2023-11-19T01:45:05;12.40;;;7.67;;
3423;SDS011;72707;50.120;8.500;2023-11-19T01:47:33;12.13;;;7.60;;
3423;SDS011;72707;50.120;8.500;2023-11-19T01:49:59;13.40;;;7.87;;
3423;SDS011;72707;50.120;8.500;2023-11-19T01:52:25;10.90;;;7.73;;
3423;SDS011;72707;50.120;8.500;2023-11-19T01:54:52;15.10;;;8.83;;
3423;SDS011;72707;50.120;8.500;2023-11-19T01:57:18;12.83;;;8.43;;
3423;SDS011;72707;50.120;8.500;2023-11-19T01:59:46;11.93;;;8.43;;
3423;SDS011;72707;50.120;8.500;2023-11-19T02:02:12;18.67;;;9.00;;
3423;SDS011;72707;50.120;8.500;2023-11-19T02:04:38;12.00;;;7.83;;
3423;SDS011;72707;50.120;8.500;2023-11-19T02:07:05;10.20;;;7.23;;
3423;SDS011;72707;50.120;8.500;2023-11-19T02:09:31;10.33;;;7.63;;
3423;SDS011;72707;50.120;8.500;2023-11-19T02:11:57;9.40;;;7.70;;
3423;SDS011;72707;50.120;8.500;2023-11-19T02:14:24;14.10;;;8.43;;
3423;SDS011;72707;50.120;8.500;2023-11-19T02:16:50;12.00;;;8.13;;
3423;SDS011;72707;50.120;8.500;2023-11-19T02:19:19;15.13;;;8.70;;
3423;SDS011;72707;50.120;8.500;2023-11-19T02:21:45;12.50;;;8.07;;
3423;SDS011;72707;50.120;8.500;2023-11-19T02:24:11;12.90;;;8.50;;
3423;SDS011;72707;50.120;8.500;2023-11-19T02:29:12;12.47;;;7.97;;
3423;SDS011;72707;50.120;8.500;2023-11-19T02:31:38;12.37;;;8.33;;
3423;SDS011;72707;50.120;8.500;2023-11-19T02:34:04;16.97;;;9.00;;
3423;SDS011;72707;50.120;8.500;2023-11-19T02:36:30;13.43;;;8.00;;
3423;SDS011;72707;50.120;8.500;2023-11-19T02:38:58;11.60;;;7.87;;
3423;SDS011;72707;50.120;8.500;2023-11-19T02:41:24;11.73;;;7.57;;
3423;SDS011;72707;50.120;8.500;2023-11-19T02:43:50;12.13;;;7.13;;
3423;SDS011;72707;50.120;8.500;2023-11-19T02:46:15;12.07;;;7.50;;
3423;SDS011;72707;50.120;8.500;2023-11-19T02:48:42;5.33;;;4.03;;
3423;SDS011;72707;50.120;8.500;2023-11-19T02:51:09;5.50;;;3.47;;
3423;SDS011;72707;50.120;8.500;2023-11-19T02:53:35;12.23;;;7.07;;
3423;SDS011;72707;50.120;8.500;2023-11-19T02:56:05;10.43;;;7.07;;
3423;SDS011;72707;50.120;8.500;2023-11-19T02:58:37;12.27;;;7.47;;
3423;SDS011;72707;50.120;8.500;2023-11-19T03:01:04;11.27;;;6.90;;
3423;SDS011;72707;50.120;8.500;2023-11-19T03:03:44;10.23;;;6.70;;
3423;SDS011;72707;50.120;8.500;2023-11-19T03:06:18;11.33;;;7.43;;
3423;SDS011;72707;50.120;8.500;2023-11-19T03:08:44;12.80;;;8.23;;
3423;SDS011;72707;50.120;8.500;2023-11-19T03:11:10;10.30;;;6.97;;
3423;SDS011;72707;50.120;8.500;2023-11-19T03:13:36;11.33;;;7.03;;
3423;SDS011;72707;50.120;8.500;2023-11-19T03:16:02;14.50;;;8.07;;
3423;SDS011;72707;50.120;8.500;2023-11-19T03:18:28;9.87;;;6.90;;
3423;SDS011;72707;50.120;8.500;2023-11-19T03:20:54;14.50;;;8.20;;
3423;SDS011;72707;50.120;8.500;2023-11-19T03:23:20;10.73;;;7.20;;
3423;SDS011;72707;50.120;8.500;2023-11-19T03:25:46;9.10;;;6.50;;
3423;SDS011;72707;50.120;8.500;2023-11-19T03:28:11;8.57;;;6.43;;
3423;SDS011;72707;50.120;8.500;2023-11-19T03:30:38;7.43;;;5.40;;
3423;SDS011;72707;50.120;8.500;2023-11-19T03:33:03;10.30;;;7.30;;
3423;SDS011;72707;50.120;8.500;2023-11-19T03:35:29;9.07;;;6.87;;
3423;SDS011;72707;50.120;8.500;2023-11-19T03:37:55;9.33;;;7.20;;
3423;SDS011;72707;50.120;8.500;2023-11-19T03:40:21;9.23;;;6.47;;
3423;SDS011;72707;50.120;8.500;2023-11-19T03:42:47;9.60;;;6.70;;
3423;SDS011;72707;50.120;8.500;2023-11-19T03:45:13;12.90;;;7.57;;
3423;SDS011;72707;50.120;8.500;2023-11-19T03:47:40;9.47;;;6.77;;
3423;SDS011;72707;50.120;8.500;2023-11-19T03:50:07;9.30;;;6.90;;
3423;SDS011;72707;50.120;8.500;2023-11-19T03:52:36;9.80;;;6.63;;
3423;SDS011;72707;50.120;8.500;2023-11-19T03:55:02;10.67;;;6.47;;
3423;SDS011;72707;50.120;8.500;2023-11-19T03:57:30;8.47;;;6.60;;
3423;SDS011;72707;50.120;8.500;2023-11-19T03:59:56;9.67;;;6.77;;
3423;SDS011;72707;50.120;8.500;2023-11-19T04:02:23;10.67;;;6.70;;
3423;SDS011;72707;50.120;8.500;2023-11-19T04:04:52;8.50;;;5.37;;
3423;SDS011;72707;50.120;8.500;2023-11-19T04:07:18;9.00;;;6.33;;
3423;SDS011;72707;50.120;8.500;2023-11-19T04:09:45;15.87;;;7.77;;
3423;SDS011;72707;50.120;8.500;2023-11-19T04:12:11;10.00;;;6.93;;
3423;SDS011;72707;50.120;8.500;2023-11-19T04:14:37;10.47;;;6.70;;
3423;SDS011;72707;50.120;8.500;2023-11-19T04:17:03;8.33;;;5.83;;
3423;SDS011;72707;50.120;8.500;2023-11-19T04:19:29;10.47;;;6.70;;
3423;SDS011;72707;50.120;8.500;2023-11-19T04:21:57;9.73;;;6.70;;
3423;SDS011;72707;50.120;8.500;2023-11-19T04:24:23;7.53;;;5.63;;
3423;SDS011;72707;50.120;8.500;2023-11-19T04:26:49;10.63;;;6.77;;
3423;SDS011;72707;50.120;8.500;2023-11-19T04:29:15;9.53;;;5.93;;
3423;SDS011;72707;50.120;8.500;2023-11-19T04:31:42;9.70;;;6.27;;
3423;SDS011;72707;50.120;8.500;2023-11-19T04:34:08;9.50;;;5.73;;
3423;SDS011;72707;50.120;8.500;2023-11-19T04:36:34;9.80;;;6.57;;
3423;SDS011;72707;50.120;8.500;2023-11-19T04:39:00;9.80;;;6.37;;
3423;SDS011;72707;50.120;8.500;2023-11-19T04:41:26;10.73;;;7.73;;
3423;SDS011;72707;50.120;8.500;2023-11-19T04:43:53;9.73;;;5.50;;
3423;SDS011;72707;50.120;8.500;2023-11-19T04:46:19;9.90;;;6.47;;
3423;SDS011;72707;50.120;8.500;2023-11-19T04:48:45;9.27;;;6.50;;
3423;SDS011;72707;50.120;8.500;2023-11-19T04:51:11;8.50;;;5.73;;
3423;SDS011;72707;50.120;8.500;2023-11-19T04:53:37;7.87;;;5.80;;
3423;SDS011;72707;50.120;8.500;2023-11-19T04:56:09;7.67;;;5.73;;
3423;SDS011;72707;50.120;8.500;2023-11-19T04:58:35;8.20;;;5.60;;
3423;SDS011;72707;50.120;8.500;2023-11-19T05:01:02;8.23;;;5.57;;
3423;SDS011;72707;50.120;8.500;2023-11-19T05:03:28;9.67;;;5.20;;
3423;SDS011;72707;50.120;8.500;2023-11-19T05:05:54;7.37;;;5.83;;
3423;SDS011;72707;50.120;8.500;2023-11-19T05:08:20;7.20;;;4.87;;
3423;SDS011;72707;50.120;8.500;2023-11-19T05:10:46;6.20;;;4.50;;
3423;SDS011;72707;50.120;8.500;2023-11-19T05:13:12;5.57;;;4.43;;
3423;SDS011;72707;50.120;8.500;2023-11-19T05:15:37;7.67;;;5.33;;
3423;SDS011;72707;50.120;8.500;2023-11-19T05:18:03;5.70;;;4.17;;
3423;SDS011;72707;50.120;8.500;2023-11-19T05:20:30;9.70;;;4.97;;
3423;SDS011;72707;50.120;8.500;2023-11-19T05:22:56;7.77;;;5.03;;
3423;SDS011;72707;50.120;8.500;2023-11-19T05:25:21;7.90;;;4.70;;
3423;SDS011;72707;50.120;8.500;2023-11-19T05:27:47;8.27;;;5.23;;
3423;SDS011;72707;50.120;8.500;2023-11-19T05:30:13;6.13;;;4.37;;
3423;SDS011;72707;50.120;8.500;2023-11-19T05:32:40;5.90;;;4.60;;
3423;SDS011;72707;50.120;8.500;2023-11-19T05:35:06;7.90;;;5.13;;
3423;SDS011;72707;50.120;8.500;2023-11-19T05:37:33;7.93;;;4.87;;
3423;SDS011;72707;50.120;8.500;2023-11-19T05:40:00;8.50;;;5.33;;
3423;SDS011;72707;50.120;8.500;2023-11-19T05:42:28;6.77;;;4.90;;
3423;SDS011;72707;50.120;8.500;2023-11-19T05:44:54;6.87;;;5.17;;
3423;SDS011;72707;50.120;8.500;2023-11-19T05:47:20;8.43;;;5.33;;
3423;SDS011;72707;50.120;8.500;2023-11-19T05:49:46;7.03;;;5.20;;
3423;SDS011;72707;50.120;8.500;2023-11-19T05:52:11;13.07;;;6.83;;
3423;SDS011;72707;50.120;8.500;2023-11-19T05:54:38;8.67;;;5.37;;
3423;SDS011;72707;50.120;8.500;2023-11-19T05:57:04;10.13;;;6.90;;
3423;SDS011;72707;50.120;8.500;2023-11-19T05:59:30;13.40;;;6.80;;
3423;SDS011;72707;50.120;8.500;2023-11-19T06:01:58;7.07;;;5.37;;
3423;SDS011;72707;50.120;8.500;2023-11-19T06:04:23;10.53;;;6.23;;
3423;SDS011;72707;50.120;8.500;2023-11-19T06:06:49;7.57;;;5.47;;
3423;SDS011;72707;50.120;8.500;2023-11-19T06:09:14;11.07;;;6.13;;
3423;SDS011;72707;50.120;8.500;2023-11-19T06:11:43;15.97;;;6.73;;
3423;SDS011;72707;50.120;8.500;2023-11-19T06:14:09;8.97;;;5.63;;
3423;SDS011;72707;50.120;8.500;2023-11-19T06:16:36;12.27;;;6.13;;
3423;SDS011;72707;50.120;8.500;2023-11-19T06:19:04;8.17;;;6.53;;
3423;SDS011;72707;50.120;8.500;2023-11-19T06:21:30;10.27;;;6.30;;
3423;SDS011;72707;50.120;8.500;2023-11-19T06:23:56;9.00;;;6.13;;
3423;SDS011;72707;50.120;8.500;2023-11-19T06:26:23;10.00;;;5.90;;
3423;SDS011;72707;50.120;8.500;2023-11-19T06:28:49;8.00;;;5.67;;
3423;SDS011;72707;50.120;8.500;2023-11-19T06:31:15;8.20;;;5.67;;
3423;SDS011;72707;50.120;8.500;2023-11-19T06:33:41;8.60;;;5.10;;
3423;SDS011;72707;50.120;8.500;2023-11-19T06:36:07;7.17;;;4.63;;
3423;SDS011;72707;50.120;8.500;2023-11-19T06:38:34;8.90;;;5.87;;
3423;SDS011;72707;50.120;8.500;2023-11-19T06:41:00;8.20;;;5.33;;
3423;SDS011;72707;50.120;8.500;2023-11-19T06:43:26;6.40;;;4.73;;
3423;SDS011;72707;50.120;8.500;2023-11-19T06:45:51;9.40;;;4.60;;
3423;SDS011;72707;50.120;8.500;2023-11-19T06:48:18;7.40;;;4.57;;
3423;SDS011;72707;50.120;8.500;2023-11-19T06:50:43;8.97;;;4.77;;
3423;SDS011;72707;50.120;8.500;2023-11-19T06:53:09;10.27;;;5.43;;
3423;SDS011;72707;50.120;8.500;2023-11-19T06:55:35;8.00;;;4.07;;
3423;SDS011;72707;50.120;8.500;2023-11-19T06:58:01;9.57;;;4.80;;
3423;SDS011;72707;50.120;8.500;2023-11-19T07:00:28;6.60;;;4.20;;
3423;SDS011;72707;50.120;8.500;2023-11-19T07:02:54;7.80;;;4.57;;
3423;SDS011;72707;50.120;8.500;2023-11-19T07:05:20;9.67;;;4.60;;
3423;SDS011;72707;50.120;8.500;2023-11-19T07:07:46;6.13;;;3.83;;
3423;SDS011;72707;50.120;8.500;2023-11-19T07:10:12;9.23;;;4.80;;
3423;SDS011;72707;50.120;8.500;2023-11-19T07:12:38;8.90;;;4.83;;
3423;SDS011;72707;50.120;8.500;2023-11-19T07:15:04;11.33;;;4.97;;
3423;SDS011;72707;50.120;8.500;2023-11-19T07:17:30;8.20;;;4.57;;
3423;SDS011;72707;50.120;8.500;2023-11-19T07:19:56;11.83;;;5.13;;
3423;SDS011;72707;50.120;8.500;2023-11-19T07:22:25;8.63;;;5.00;;
3423;SDS011;72707;50.120;8.500;2023-11-19T07:24:51;9.83;;;5.63;;
3423;SDS011;72707;50.120;8.500;2023-11-19T07:27:18;8.30;;;5.07;;
3423;SDS011;72707;50.120;8.500;2023-11-19T07:29:44;9.63;;;5.13;;
3423;SDS011;72707;50.120;8.500;2023-11-19T07:32:10;11.57;;;5.90;;
3423;SDS011;72707;50.120;8.500;2023-11-19T07:34:36;11.30;;;6.47;;
3423;SDS011;72707;50.120;8.500;2023-11-19T07:37:02;11.73;;;6.63;;
3423;SDS011;72707;50.120;8.500;2023-11-19T07:39:28;9.77;;;5.67;;
3423;SDS011;72707;50.120;8.500;2023-11-19T07:41:54;9.03;;;5.70;;
3423;SDS011;72707;50.120;8.500;2023-11-19T07:44:20;9.70;;;6.33;;
3423;SDS011;72707;50.120;8.500;2023-11-19T07:46:46;11.77;;;5.97;;
3423;SDS011;72707;50.120;8.500;2023-11-19T07:49:12;10.73;;;5.67;;
3423;SDS011;72707;50.120;8.500;2023-11-19T07:51:38;8.67;;;4.80;;
3423;SDS011;72707;50.120;8.500;2023-11-19T07:54:04;7.27;;;5.37;;
3423;SDS011;72707;50.120;8.500;2023-11-19T07:56:30;7.77;;;4.80;;
3423;SDS011;72707;50.120;8.500;2023-11-19T07:58:56;4.50;;;3.60;;
3423;SDS011;72707;50.120;8.500;2023-11-19T08:01:22;8.00;;;4.37;;
3423;SDS011;72707;50.120;8.500;2023-11-19T08:03:48;14.47;;;9.17;;
3423;SDS011;72707;50.120;8.500;2023-11-19T08:06:14;11.23;;;7.77;;
3423;SDS011;72707;50.120;8.500;2023-11-19T08:08:40;10.13;;;7.47;;
3423;SDS011;72707;50.120;8.500;2023-11-19T08:11:05;9.13;;;5.90;;
3423;SDS011;72707;50.120;8.500;2023-11-19T08:13:32;12.50;;;6.43;;
3423;SDS011;72707;50.120;8.500;2023-11-19T08:15:58;9.73;;;5.83;;
3423;SDS011;72707;50.120;8.500;2023-11-19T08:18:24;9.43;;;5.70;;
3423;SDS011;72707;50.120;8.500;2023-11-19T08:20:50;16.97;;;8.07;;
3423;SDS011;72707;50.120;8.500;2023-11-19T08:23:18;14.27;;;8.33;;
3423;SDS011;72707;50.120;8.500;2023-11-19T08:25:44;8.27;;;4.33;;
3423;SDS011;72707;50.120;8.500;2023-11-19T08:33:15;10.17;;;5.00;;
3423;SDS011;72707;50.120;8.500;2023-11-19T08:35:40;5.57;;;3.80;;
3423;SDS011;72707;50.120;8.500;2023-11-19T08:38:06;6.60;;;3.70;;
3423;SDS011;72707;50.120;8.500;2023-11-19T08:40:32;6.40;;;3.60;;
3423;SDS011;72707;50.120;8.500;2023-11-19T08:42:58;4.87;;;3.33;;
3423;SDS011;72707;50.120;8.500;2023-11-19T08:45:24;5.87;;;2.90;;
3423;SDS011;72707;50.120;8.500;2023-11-19T08:47:50;6.30;;;3.60;;
3423;SDS011;72707;50.120;8.500;2023-11-19T08:50:15;6.50;;;3.00;;
3423;SDS011;72707;50.120;8.500;2023-11-19T08:52:41;4.77;;;2.30;;
3423;SDS011;72707;50.120;8.500;2023-11-19T08:55:06;4.10;;;2.00;;
3423;SDS011;72707;50.120;8.500;2023-11-19T08:57:32;1.77;;;1.47;;
3423;SDS011;72707;50.120;8.500;2023-11-19T08:59:58;4.07;;;1.93;;
3423;SDS011;72707;50.120;8.500;2023-11-19T09:02:24;1.50;;;1.40;;
3423;SDS011;72707;50.120;8.500;2023-11-19T09:04:50;2.63;;;1.50;;
3423;SDS011;72707;50.120;8.500;2023-11-19T09:07:16;2.37;;;1.70;;
3423;SDS011;72707;50.120;8.500;2023-11-19T09:09:42;6.23;;;2.77;;
3423;SDS011;72707;50.120;8.500;2023-11-19T09:12:08;3.57;;;2.30;;
3423;SDS011;72707;50.120;8.500;2023-11-19T09:14:34;4.03;;;1.70;;
3423;SDS011;72707;50.120;8.500;2023-11-19T09:16:59;3.57;;;2.13;;
3423;SDS011;72707;50.120;8.500;2023-11-19T09:19:25;9.13;;;3.30;;
3423;SDS011;72707;50.120;8.500;2023-11-19T09:21:55;4.17;;;2.23;;
3423;SDS011;72707;50.120;8.500;2023-11-19T09:24:20;3.47;;;2.10;;
3423;SDS011;72707;50.120;8.500;2023-11-19T09:26:46;2.77;;;2.13;;
3423;SDS011;72707;50.120;8.500;2023-11-19T09:29:12;7.93;;;3.13;;
3423;SDS011;72707;50.120;8.500;2023-11-19T09:31:39;3.70;;;2.70;;
3423;SDS011;72707;50.120;8.500;2023-11-19T09:34:05;3.00;;;2.07;;
3423;SDS011;72707;50.120;8.500;2023-11-19T09:36:31;5.13;;;2.70;;
3423;SDS011;72707;50.120;8.500;2023-11-19T09:38:57;4.50;;;2.00;;
3423;SDS011;72707;50.120;8.500;2023-11-19T09:41:25;5.80;;;2.93;;
3423;SDS011;72707;50.120;8.500;2023-11-19T09:43:52;5.43;;;1.90;;
3423;SDS011;72707;50.120;8.500;2023-11-19T09:46:18;7.87;;;2.23;;
3423;SDS011;72707;50.120;8.500;2023-11-19T09:48:45;10.13;;;3.10;;
3423;SDS011;72707;50.120;8.500;2023-11-19T09:51:13;5.47;;;1.90;;
3423;SDS011;72707;50.120;8.500;2023-11-19T09:53:39;5.80;;;1.40;;
3423;SDS011;72707;50.120;8.500;2023-11-19T09:56:06;9.50;;;2.97;;
3423;SDS011;72707;50.120;8.500;2023-11-19T09:58:32;14.00;;;2.73;;
3423;SDS011;72707;50.120;8.500;2023-11-19T10:00:59;6.93;;;1.77;;
3423;SDS011;72707;50.120;8.500;2023-11-19T10:03:32;5.20;;;1.83;;
3423;SDS011;72707;50.120;8.500;2023-11-19T10:06:08;2.47;;;1.47;;
3423;SDS011;72707;50.120;8.500;2023-11-19T10:08:38;6.23;;;2.80;;
3423;SDS011;72707;50.120;8.500;2023-11-19T10:16:14;16.97;;;4.63;;
3423;SDS011;72707;50.120;8.500;2023-11-19T10:21:08;7.13;;;2.07;;
3423;SDS011;72707;50.120;8.500;2023-11-19T10:23:47;9.60;;;2.80;;
3423;SDS011;72707;50.120;8.500;2023-11-19T10:26:16;13.00;;;2.83;;
3423;SDS011;72707;50.120;8.500;2023-11-19T10:28:42;10.40;;;2.63;;
3423;SDS011;72707;50.120;8.500;2023-11-19T10:31:10;7.13;;;1.60;;
3423;SDS011;72707;50.120;8.500;2023-11-19T10:33:37;8.40;;;1.77;;
3423;SDS011;72707;50.120;8.500;2023-11-19T10:36:03;8.23;;;1.97;;
3423;SDS011;72707;50.120;8.500;2023-11-19T10:38:29;6.10;;;1.93;;
3423;SDS011;72707;50.120;8.500;2023-11-19T10:40:55;9.23;;;2.87;;
3423;SDS011;72707;50.120;8.500;2023-11-19T10:43:22;9.20;;;3.10;;
3423;SDS011;72707;50.120;8.500;2023-11-19T10:45:48;9.93;;;2.97;;
3423;SDS011;72707;50.120;8.500;2023-11-19T10:48:14;21.03;;;4.47;;
3423;SDS011;72707;50.120;8.500;2023-11-19T10:50:40;5.43;;;1.67;;
3423;SDS011;72707;50.120;8.500;2023-11-19T10:53:09;23.37;;;4.67;;
3423;SDS011;72707;50.120;8.500;2023-11-19T10:55:38;11.23;;;3.07;;
3423;SDS011;72707;50.120;8.500;2023-11-19T10:58:05;12.07;;;3.30;;
3423;SDS011;72707;50.120;8.500;2023-11-19T11:00:45;18.40;;;4.23;;
3423;SDS011;72707;50.120;8.500;2023-11-19T11:03:16;7.73;;;2.13;;
3423;SDS011;72707;50.120;8.500;2023-11-19T11:05:46;10.77;;;3.17;;
3423;SDS011;72707;50.120;8.500;2023-11-19T11:08:12;9.97;;;2.87;;
3423;SDS011;72707;50.120;8.500;2023-11-19T11:13:36;6.03;;;1.60;;
3423;SDS011;72707;50.120;8.500;2023-11-19T11:16:07;7.20;;;1.57;;
3423;SDS011;72707;50.120;8.500;2023-11-19T11:18:33;15.77;;;3.63;;
3423;SDS011;72707;50.120;8.500;2023-11-19T11:21:09;15.80;;;3.47;;
3423;SDS011;72707;50.120;8.500;2023-11-19T11:23:44;10.40;;;2.70;;
3423;SDS011;72707;50.120;8.500;2023-11-19T11:26:42;5.73;;;2.13;;
3423;SDS011;72707;50.120;8.500;2023-11-19T11:38:21;6.43;;;1.57;;
3423;SDS011;72707;50.120;8.500;2023-11-19T11:43:51;8.20;;;2.17;;
3423;SDS011;72707;50.120;8.500;2023-11-19T11:48:59;10.57;;;2.77;;
3423;SDS011;72707;50.120;8.500;2023-11-19T11:54:31;7.70;;;2.07;;
3423;SDS011;72707;50.120;8.500;2023-11-19T12:02:08;7.63;;;2.10;;
3423;SDS011;72707;50.120;8.500;2023-11-19T12:04:38;12.47;;;2.90;;
3423;SDS011;72707;50.120;8.500;2023-11-19T12:07:05;5.83;;;2.40;;
3423;SDS011;72707;50.120;8.500;2023-11-19T12:09:33;6.40;;;1.63;;
3423;SDS011;72707;50.120;8.500;2023-11-19T12:20:02;7.87;;;2.07;;
3423;SDS011;72707;50.120;8.500;2023-11-19T12:22:31;16.17;;;3.37;;
3423;SDS011;72707;50.120;8.500;2023-11-19T12:24:57;10.80;;;2.37;;
3423;SDS011;72707;50.120;8.500;2023-11-19T12:27:23;7.73;;;2.20;;
3423;SDS011;72707;50.120;8.500;2023-11-19T12:29:48;10.80;;;2.77;;
3423;SDS011;72707;50.120;8.500;2023-11-19T12:32:14;6.00;;;1.40;;
3423;SDS011;72707;50.120;8.500;2023-11-19T12:34:40;7.17;;;2.87;;
3423;SDS011;72707;50.120;8.500;2023-11-19T12:37:06;8.67;;;1.63;;
3423;SDS011;72707;50.120;8.500;2023-11-19T12:39:34;10.73;;;2.00;;
3423;SDS011;72707;50.120;8.500;2023-11-19T12:42:00;7.63;;;1.90;;
3423;SDS011;72707;50.120;8.500;2023-11-19T12:44:27;10.10;;;2.10;;
3423;SDS011;72707;50.120;8.500;2023-11-19T12:47:06;10.20;;;2.27;;
3423;SDS011;72707;50.120;8.500;2023-11-19T12:49:32;4.67;;;1.70;;
3423;SDS011;72707;50.120;8.500;2023-11-19T12:51:58;7.23;;;2.50;;
3423;SDS011;72707;50.120;8.500;2023-11-19T12:54:37;6.57;;;1.60;;
3423;SDS011;72707;50.120;8.500;2023-11-19T12:57:03;10.13;;;2.37;;
3423;SDS011;72707;50.120;8.500;2023-11-19T12:59:30;5.33;;;1.20;;
3423;SDS011;72707;50.120;8.500;2023-11-19T13:01:59;10.27;;;2.50;;
3423;SDS011;72707;50.120;8.500;2023-11-19T13:04:28;6.70;;;1.80;;
3423;SDS011;72707;50.120;8.500;2023-11-19T13:06:58;2.63;;;1.10;;
3423;SDS011;72707;50.120;8.500;2023-11-19T13:09:25;5.40;;;1.17;;
3423;SDS011;72707;50.120;8.500;2023-11-19T13:11:52;1.10;;;0.50;;
3423;SDS011;72707;50.120;8.500;2023-11-19T13:14:19;4.80;;;1.00;;
3423;SDS011;72707;50.120;8.500;2023-11-19T13:16:45;4.07;;;1.00;;
3423;SDS011;72707;50.120;8.500;2023-11-19T13:19:14;4.93;;;1.37;;
3423;SDS011;72707;50.120;8.500;2023-11-19T13:21:44;10.80;;;2.90;;
3423;SDS011;72707;50.120;8.500;2023-11-19T13:24:12;9.40;;;2.10;;
3423;SDS011;72707;50.120;8.500;2023-11-19T13:26:38;7.23;;;1.57;;
3423;SDS011;72707;50.120;8.500;2023-11-19T13:29:04;4.93;;;1.20;;
3423;SDS011;72707;50.120;8.500;2023-11-19T13:31:30;11.90;;;2.87;;
3423;SDS011;72707;50.120;8.500;2023-11-19T13:33:56;5.57;;;1.83;;
3423;SDS011;72707;50.120;8.500;2023-11-19T13:36:23;6.03;;;1.67;;
3423;SDS011;72707;50.120;8.500;2023-11-19T13:38:49;4.73;;;1.70;;
3423;SDS011;72707;50.120;8.500;2023-11-19T13:41:15;6.00;;;1.90;;
3423;SDS011;72707;50.120;8.500;2023-11-19T13:43:40;8.73;;;1.70;;
3423;SDS011;72707;50.120;8.500;2023-11-19T13:46:06;6.03;;;1.30;;
3423;SDS011;72707;50.120;8.500;2023-11-19T13:48:34;9.97;;;2.43;;
3423;SDS011;72707;50.120;8.500;2023-11-19T13:51:00;5.47;;;1.37;;
3423;SDS011;72707;50.120;8.500;2023-11-19T13:53:26;7.83;;;1.30;;
3423;SDS011;72707;50.120;8.500;2023-11-19T13:55:52;7.63;;;1.67;;
3423;SDS011;72707;50.120;8.500;2023-11-19T13:58:18;13.70;;;2.87;;
3423;SDS011;72707;50.120;8.500;2023-11-19T14:00:44;5.07;;;2.00;;
3423;SDS011;72707;50.120;8.500;2023-11-19T14:03:10;5.13;;;1.50;;
3423;SDS011;72707;50.120;8.500;2023-11-19T14:05:36;5.83;;;1.30;;
3423;SDS011;72707;50.120;8.500;2023-11-19T14:08:02;12.13;;;2.53;;
3423;SDS011;72707;50.120;8.500;2023-11-19T14:10:28;4.83;;;1.20;;
3423;SDS011;72707;50.120;8.500;2023-11-19T14:12:54;11.50;;;2.97;;
3423;SDS011;72707;50.120;8.500;2023-11-19T14:15:20;14.77;;;3.57;;
3423;SDS011;72707;50.120;8.500;2023-11-19T14:17:46;8.23;;;2.13;;
3423;SDS011;72707;50.120;8.500;2023-11-19T14:20:12;4.13;;;1.30;;
3423;SDS011;72707;50.120;8.500;2023-11-19T14:22:43;12.00;;;3.17;;
3423;SDS011;72707;50.120;8.500;2023-11-19T14:25:10;5.27;;;1.30;;
3423;SDS011;72707;50.120;8.500;2023-11-19T14:27:36;7.00;;;1.67;;
3423;SDS011;72707;50.120;8.500;2023-11-19T14:30:04;8.23;;;2.27;;
3423;SDS011;72707;50.120;8.500;2023-11-19T14:32:30;6.43;;;1.57;;
3423;SDS011;72707;50.120;8.500;2023-11-19T14:34:56;9.30;;;2.03;;
3423;SDS011;72707;50.120;8.500;2023-11-19T14:37:22;9.00;;;2.20;;
3423;SDS011;72707;50.120;8.500;2023-11-19T14:39:48;8.10;;;2.40;;
3423;SDS011;72707;50.120;8.500;2023-11-19T14:42:15;4.97;;;1.27;;
3423;SDS011;72707;50.120;8.500;2023-11-19T14:44:41;6.37;;;2.13;;
3423;SDS011;72707;50.120;8.500;2023-11-19T14:47:07;9.70;;;2.30;;
3423;SDS011;72707;50.120;8.500;2023-11-19T14:49:37;7.53;;;1.77;;
3423;SDS011;72707;50.120;8.500;2023-11-19T14:52:03;6.80;;;2.00;;
3423;SDS011;72707;50.120;8.500;2023-11-19T14:54:29;5.80;;;1.50;;
3423;SDS011;72707;50.120;8.500;2023-11-19T14:56:55;4.90;;;1.57;;
3423;SDS011;72707;50.120;8.500;2023-11-19T14:59:21;6.20;;;1.73;;
3423;SDS011;72707;50.120;8.500;2023-11-19T15:01:47;6.67;;;1.40;;
3423;SDS011;72707;50.120;8.500;2023-11-19T15:04:13;8.90;;;1.93;;
3423;SDS011;72707;50.120;8.500;2023-11-19T15:06:39;9.03;;;2.60;;
3423;SDS011;72707;50.120;8.500;2023-11-19T15:09:05;5.07;;;1.40;;
3423;SDS011;72707;50.120;8.500;2023-11-19T15:11:32;4.43;;;1.43;;
3423;SDS011;72707;50.120;8.500;2023-11-19T15:13:58;7.03;;;1.70;;
3423;SDS011;72707;50.120;8.500;2023-11-19T15:16:25;12.87;;;2.20;;
3423;SDS011;72707;50.120;8.500;2023-11-19T15:18:56;6.00;;;2.10;;
3423;SDS011;72707;50.120;8.500;2023-11-19T15:21:24;6.27;;;1.93;;
3423;SDS011;72707;50.120;8.500;2023-11-19T15:23:51;3.93;;;1.33;;
3423;SDS011;72707;50.120;8.500;2023-11-19T15:26:17;12.10;;;2.67;;
3423;SDS011;72707;50.120;8.500;2023-11-19T15:28:43;4.80;;;1.60;;
3423;SDS011;72707;50.120;8.500;2023-11-19T15:31:08;3.87;;;1.10;;
3423;SDS011;72707;50.120;8.500;2023-11-19T15:33:35;7.63;;;1.80;;
3423;SDS011;72707;50.120;8.500;2023-11-19T15:36:01;19.57;;;4.07;;
3423;SDS011;72707;50.120;8.500;2023-11-19T15:38:34;7.93;;;1.70;;
3423;SDS011;72707;50.120;8.500;2023-11-19T15:40:59;3.93;;;1.40;;
3423;SDS011;72707;50.120;8.500;2023-11-19T15:43:25;6.27;;;2.20;;
3423;SDS011;72707;50.120;8.500;2023-11-19T15:45:51;12.37;;;2.40;;
3423;SDS011;72707;50.120;8.500;2023-11-19T15:48:16;7.13;;;2.50;;
3423;SDS011;72707;50.120;8.500;2023-11-19T15:50:42;6.37;;;1.57;;
3423;SDS011;72707;50.120;8.500;2023-11-19T15:53:09;7.27;;;2.30;;
3423;SDS011;72707;50.120;8.500;2023-11-19T15:55:35;13.50;;;2.67;;
3423;SDS011;72707;50.120;8.500;2023-11-19T15:58:00;6.70;;;1.63;;
3423;SDS011;72707;50.120;8.500;2023-11-19T16:00:26;6.87;;;2.23;;
3423;SDS011;72707;50.120;8.500;2023-11-19T16:02:52;6.67;;;1.73;;
3423;SDS011;72707;50.120;8.500;2023-11-19T16:05:18;10.33;;;2.13;;
3423;SDS011;72707;50.120;8.500;2023-11-19T16:07:44;10.20;;;2.30;;
3423;SDS011;72707;50.120;8.500;2023-11-19T16:10:10;8.20;;;2.37;;